Etusivu
METAR-TAF:

METAR-TAF

Lentoasemat :

Šiauliai, Liettua

Leveyspiiri: 55-53-38N, Pituuspiiri: 023-23-42E, korkeus merenpinnasta: 135 m

Tämänhetkinen sää

Tämä raportti tehtiin 38 minuuttia sitten, kello 17.20 UTC
Tuuli 5 kn koillisesta
Lämpötila -2°C
Kosteus 93%
Ilmanpaine 1023 hPa
Näkyvyys 10 km tai enemmän
Hajanaisia pilviä 600 ft:n korkeudessa
Pilvistä 1600 ft:n korkeudessa

METAR: EYSA 191720Z 04005KT 9999 SCT006 OVC016 M02/M03 Q1023 R32R/29//95 R32L/29//95 YLO1 TEMPO FEW006 OVC014 GRN

Aika: 19:58 (17:58 UTC)

Sääennuste

Tämä raportti tehtiin 48 minuuttia sitten, kello 17.10 UTC
Ennuste voimassa 19. päivästä klo 18 UTC - 20. päivään klo 03 UTC
Tuuli 10 kn pohjoisesta/koillisesta
Näkyvyys: 5000 m
Pilvistä 800 ft:n korkeudessa
lumisadetta, utua
Ajoittain
19. päivästä klo 18 UTC - 20. päivään klo 03 UTC
Näkyvyys: 1000 m
Hajonneita pilviä 300 ft:n korkeudessa

TAF: EYSA 191710Z 1918/2003 03010KT 5000 SN BR OVC008 TEMPO 1918/2003 1000 BKN003

Säähavainnot ja -ennusteet yli 4000 lentoasemalta (METAR- ja TAF-raportit).

Käytössä olevat sääasemat on merkitty karttaan keltaisilla ja punaisilla pisteillä.

Aseta hiiri pisteen päälle nähdäksesi sääaseman nimen.

Klikkaa sitten nähdäksesi säähavainnot ja -ennusteet.

Kartan vaihtaminen: klikkaa mustalla rastilla varustettuja vihreitä pisteitä, niin voit zoomata sisään; viivalla varustettua vihreää pistettä, niin voit zoomata ulos tai vihreitä nuolia, niin pääset viereisille kartoille.


METAR-TAF: